FCBB/BZV METAR and TAF weather

Enter ICAO airport designator
Station Type Date Time Source
FCBB METAR 2021/05/10 01:00 UTC NOAA

FCBB 100100Z VRB03KT 9000 TS FEW010 FEW030CB 25/23 Q1013 NOSIG


Station Type Date Time Source
FCBB Decoded METAR 2021/05/10 01:00 UTC NOAA

Brazzaville / Maya-Maya, Congo, Republic of the (FCBB) 04-15S 015-15E 316M
May 09, 2021 - 09:00 PM EDT / 2021.05.10 0100 UTC
Wind: Variable at 3 MPH (3 KT):0
Visibility: 5 mile(s):0
Sky conditions: mostly clear
Weather: thunder; Cumulonimbus clouds observed
Temperature: 77 F (25 C)
Dew Point: 73 F (23 C)
Relative Humidity: 88%
Pressure (altimeter): 29.91 in. Hg (1013 hPa)
ob: FCBB 100100Z VRB03KT 9000 TS FEW010 FEW030CB 25/23 Q1013 NOSIG
cycle: 1

Station Type Date Time Source
FCBB TAF 2021/05/09 18:09 UTC NOAA

TAF TAF FCBB 091700Z 0918/1024 26004KT 9000 FEW020 FEW030CB PROB30 0920/0923 TS
BECMG 0924/1002 SCT018 PROB30 1016/1020 FEW020 FEW030CB

Example: see airport list